sensor_id;sensor_type;location;lat;lon;timestamp;P1;durP1;ratioP1;P2;durP2;ratioP2
45926;SDS011;31639;47.614;19.684;2022-07-24T00:02:52;6.17;;;4.43;;
45926;SDS011;31639;47.614;19.684;2022-07-24T00:07:53;8.60;;;4.70;;
45926;SDS011;31639;47.614;19.684;2022-07-24T00:12:53;7.53;;;5.27;;
45926;SDS011;31639;47.614;19.684;2022-07-24T00:17:53;8.68;;;4.50;;
45926;SDS011;31639;47.614;19.684;2022-07-24T00:22:54;5.40;;;3.28;;
45926;SDS011;31639;47.614;19.684;2022-07-24T00:27:54;7.57;;;5.07;;
45926;SDS011;31639;47.614;19.684;2022-07-24T00:32:55;6.00;;;4.00;;
45926;SDS011;31639;47.614;19.684;2022-07-24T00:37:55;7.43;;;3.83;;
45926;SDS011;31639;47.614;19.684;2022-07-24T00:42:56;7.10;;;4.60;;
45926;SDS011;31639;47.614;19.684;2022-07-24T00:47:57;4.72;;;3.30;;
45926;SDS011;31639;47.614;19.684;2022-07-24T00:52:57;6.15;;;3.55;;
45926;SDS011;31639;47.614;19.684;2022-07-24T00:57:58;6.45;;;4.25;;
45926;SDS011;31639;47.614;19.684;2022-07-24T01:02:58;4.93;;;3.60;;
45926;SDS011;31639;47.614;19.684;2022-07-24T01:07:59;5.97;;;4.03;;
45926;SDS011;31639;47.614;19.684;2022-07-24T01:13:00;4.75;;;3.42;;
45926;SDS011;31639;47.614;19.684;2022-07-24T01:18:01;6.15;;;3.58;;
45926;SDS011;31639;47.614;19.684;2022-07-24T01:23:02;6.40;;;4.55;;
45926;SDS011;31639;47.614;19.684;2022-07-24T01:28:02;7.32;;;3.80;;
45926;SDS011;31639;47.614;19.684;2022-07-24T01:33:03;5.63;;;4.03;;
45926;SDS011;31639;47.614;19.684;2022-07-24T01:38:03;9.17;;;4.60;;
45926;SDS011;31639;47.614;19.684;2022-07-24T01:43:03;4.50;;;3.30;;
45926;SDS011;31639;47.614;19.684;2022-07-24T01:48:04;7.63;;;3.70;;
45926;SDS011;31639;47.614;19.684;2022-07-24T01:53:05;6.35;;;4.05;;
45926;SDS011;31639;47.614;19.684;2022-07-24T01:58:05;6.78;;;3.70;;
45926;SDS011;31639;47.614;19.684;2022-07-24T02:03:05;5.78;;;3.20;;
45926;SDS011;31639;47.614;19.684;2022-07-24T02:08:06;4.95;;;3.15;;
45926;SDS011;31639;47.614;19.684;2022-07-24T02:13:06;7.10;;;3.97;;
45926;SDS011;31639;47.614;19.684;2022-07-24T02:18:07;6.85;;;4.18;;
45926;SDS011;31639;47.614;19.684;2022-07-24T02:23:07;4.40;;;2.97;;
45926;SDS011;31639;47.614;19.684;2022-07-24T02:28:08;5.07;;;3.35;;
45926;SDS011;31639;47.614;19.684;2022-07-24T02:33:09;6.63;;;3.13;;
45926;SDS011;31639;47.614;19.684;2022-07-24T02:38:09;6.20;;;3.72;;
45926;SDS011;31639;47.614;19.684;2022-07-24T02:43:10;5.03;;;3.63;;
45926;SDS011;31639;47.614;19.684;2022-07-24T02:48:10;4.90;;;3.87;;
45926;SDS011;31639;47.614;19.684;2022-07-24T02:53:11;4.63;;;3.05;;
45926;SDS011;31639;47.614;19.684;2022-07-24T02:58:11;4.77;;;3.17;;
45926;SDS011;31639;47.614;19.684;2022-07-24T03:03:11;5.63;;;3.60;;
45926;SDS011;31639;47.614;19.684;2022-07-24T03:08:12;4.72;;;3.08;;
45926;SDS011;31639;47.614;19.684;2022-07-24T03:13:12;6.30;;;3.97;;
45926;SDS011;31639;47.614;19.684;2022-07-24T03:18:13;6.05;;;3.55;;
45926;SDS011;31639;47.614;19.684;2022-07-24T03:23:13;5.37;;;2.80;;
45926;SDS011;31639;47.614;19.684;2022-07-24T03:28:14;5.07;;;3.58;;
45926;SDS011;31639;47.614;19.684;2022-07-24T03:33:15;4.75;;;3.08;;
45926;SDS011;31639;47.614;19.684;2022-07-24T03:38:15;4.77;;;3.67;;
45926;SDS011;31639;47.614;19.684;2022-07-24T03:43:15;5.90;;;3.85;;
45926;SDS011;31639;47.614;19.684;2022-07-24T03:48:16;6.53;;;3.67;;
45926;SDS011;31639;47.614;19.684;2022-07-24T03:53:17;13.50;;;3.47;;
45926;SDS011;31639;47.614;19.684;2022-07-24T03:58:17;5.03;;;3.60;;
45926;SDS011;31639;47.614;19.684;2022-07-24T04:03:18;4.88;;;3.22;;
45926;SDS011;31639;47.614;19.684;2022-07-24T04:08:18;5.10;;;3.70;;
45926;SDS011;31639;47.614;19.684;2022-07-24T04:13:19;6.25;;;3.10;;
45926;SDS011;31639;47.614;19.684;2022-07-24T04:18:19;4.57;;;3.30;;
45926;SDS011;31639;47.614;19.684;2022-07-24T04:23:19;6.57;;;4.35;;
45926;SDS011;31639;47.614;19.684;2022-07-24T04:28:20;4.72;;;3.28;;
45926;SDS011;31639;47.614;19.684;2022-07-24T04:33:20;5.57;;;3.47;;
45926;SDS011;31639;47.614;19.684;2022-07-24T04:38:21;4.63;;;3.03;;
45926;SDS011;31639;47.614;19.684;2022-07-24T04:43:21;5.85;;;3.65;;
45926;SDS011;31639;47.614;19.684;2022-07-24T04:48:21;5.63;;;3.87;;
45926;SDS011;31639;47.614;19.684;2022-07-24T04:53:22;5.05;;;3.10;;
45926;SDS011;31639;47.614;19.684;2022-07-24T04:58:23;5.00;;;3.78;;
45926;SDS011;31639;47.614;19.684;2022-07-24T05:03:25;6.47;;;3.80;;
45926;SDS011;31639;47.614;19.684;2022-07-24T05:08:25;5.47;;;3.47;;
45926;SDS011;31639;47.614;19.684;2022-07-24T05:13:25;7.77;;;3.80;;
45926;SDS011;31639;47.614;19.684;2022-07-24T05:18:26;5.47;;;3.07;;
45926;SDS011;31639;47.614;19.684;2022-07-24T05:23:26;5.67;;;3.80;;
45926;SDS011;31639;47.614;19.684;2022-07-24T05:28:27;4.40;;;3.38;;
45926;SDS011;31639;47.614;19.684;2022-07-24T05:33:27;7.03;;;3.93;;
45926;SDS011;31639;47.614;19.684;2022-07-24T05:38:28;7.10;;;4.80;;
45926;SDS011;31639;47.614;19.684;2022-07-24T05:43:28;5.70;;;4.17;;
45926;SDS011;31639;47.614;19.684;2022-07-24T05:48:30;5.50;;;3.65;;
45926;SDS011;31639;47.614;19.684;2022-07-24T05:53:30;6.97;;;4.82;;
45926;SDS011;31639;47.614;19.684;2022-07-24T05:58:30;4.97;;;3.77;;
45926;SDS011;31639;47.614;19.684;2022-07-24T06:03:31;5.10;;;3.13;;
45926;SDS011;31639;47.614;19.684;2022-07-24T06:08:31;6.73;;;4.67;;
45926;SDS011;31639;47.614;19.684;2022-07-24T06:13:32;4.57;;;3.33;;
45926;SDS011;31639;47.614;19.684;2022-07-24T06:18:32;6.43;;;3.43;;
45926;SDS011;31639;47.614;19.684;2022-07-24T06:23:32;5.10;;;3.43;;
45926;SDS011;31639;47.614;19.684;2022-07-24T06:28:33;4.40;;;2.97;;
45926;SDS011;31639;47.614;19.684;2022-07-24T06:33:33;3.97;;;3.10;;
45926;SDS011;31639;47.614;19.684;2022-07-24T06:38:35;7.57;;;3.78;;
45926;SDS011;31639;47.614;19.684;2022-07-24T06:43:36;4.70;;;3.00;;
45926;SDS011;31639;47.614;19.684;2022-07-24T06:48:36;4.83;;;3.30;;
45926;SDS011;31639;47.614;19.684;2022-07-24T06:53:38;4.85;;;3.55;;
45926;SDS011;31639;47.614;19.684;2022-07-24T06:58:40;5.25;;;4.50;;
45926;SDS011;31639;47.614;19.684;2022-07-24T07:03:41;5.33;;;3.37;;
45926;SDS011;31639;47.614;19.684;2022-07-24T07:08:42;5.43;;;4.30;;
45926;SDS011;31639;47.614;19.684;2022-07-24T07:13:42;5.40;;;4.27;;
45926;SDS011;31639;47.614;19.684;2022-07-24T07:18:43;5.50;;;3.95;;
45926;SDS011;31639;47.614;19.684;2022-07-24T07:23:43;4.90;;;3.53;;
45926;SDS011;31639;47.614;19.684;2022-07-24T07:28:44;6.43;;;3.80;;
45926;SDS011;31639;47.614;19.684;2022-07-24T07:33:44;5.93;;;4.03;;
45926;SDS011;31639;47.614;19.684;2022-07-24T07:38:45;4.93;;;3.80;;
45926;SDS011;31639;47.614;19.684;2022-07-24T07:43:46;8.88;;;3.92;;
45926;SDS011;31639;47.614;19.684;2022-07-24T07:48:49;5.20;;;4.07;;
45926;SDS011;31639;47.614;19.684;2022-07-24T07:53:50;4.90;;;4.00;;
45926;SDS011;31639;47.614;19.684;2022-07-24T07:58:50;6.93;;;4.45;;
45926;SDS011;31639;47.614;19.684;2022-07-24T08:03:51;3.80;;;3.30;;
45926;SDS011;31639;47.614;19.684;2022-07-24T08:08:51;6.88;;;3.65;;
45926;SDS011;31639;47.614;19.684;2022-07-24T08:13:52;6.18;;;3.63;;
45926;SDS011;31639;47.614;19.684;2022-07-24T08:18:52;4.33;;;2.90;;
45926;SDS011;31639;47.614;19.684;2022-07-24T08:23:52;6.67;;;3.80;;
45926;SDS011;31639;47.614;19.684;2022-07-24T08:28:53;4.47;;;3.40;;
45926;SDS011;31639;47.614;19.684;2022-07-24T08:33:53;4.28;;;3.25;;
45926;SDS011;31639;47.614;19.684;2022-07-24T08:38:54;4.45;;;3.03;;
45926;SDS011;31639;47.614;19.684;2022-07-24T08:43:54;3.38;;;3.08;;
45926;SDS011;31639;47.614;19.684;2022-07-24T08:48:55;6.37;;;3.40;;
45926;SDS011;31639;47.614;19.684;2022-07-24T08:53:57;4.03;;;2.70;;
45926;SDS011;31639;47.614;19.684;2022-07-24T08:58:58;4.13;;;2.85;;
45926;SDS011;31639;47.614;19.684;2022-07-24T09:03:59;4.72;;;3.05;;
45926;SDS011;31639;47.614;19.684;2022-07-24T09:09:00;5.18;;;3.63;;
45926;SDS011;31639;47.614;19.684;2022-07-24T09:14:03;4.38;;;3.25;;
45926;SDS011;31639;47.614;19.684;2022-07-24T09:19:22;18.48;;;3.88;;
45926;SDS011;31639;47.614;19.684;2022-07-24T09:24:22;4.30;;;2.90;;
45926;SDS011;31639;47.614;19.684;2022-07-24T09:29:24;3.63;;;2.70;;
45926;SDS011;31639;47.614;19.684;2022-07-24T09:34:26;3.53;;;2.92;;
45926;SDS011;31639;47.614;19.684;2022-07-24T09:39:30;3.43;;;2.40;;
45926;SDS011;31639;47.614;19.684;2022-07-24T09:44:34;4.90;;;2.80;;
45926;SDS011;31639;47.614;19.684;2022-07-24T09:49:35;4.32;;;3.15;;
45926;SDS011;31639;47.614;19.684;2022-07-24T09:59:45;3.47;;;2.67;;
45926;SDS011;31639;47.614;19.684;2022-07-24T10:04:53;2.88;;;2.58;;
45926;SDS011;31639;47.614;19.684;2022-07-24T10:09:56;3.85;;;2.83;;
45926;SDS011;31639;47.614;19.684;2022-07-24T10:14:59;3.85;;;2.78;;
45926;SDS011;31639;47.614;19.684;2022-07-24T10:20:02;2.40;;;2.20;;
45926;SDS011;31639;47.614;19.684;2022-07-24T10:25:05;4.43;;;3.03;;
45926;SDS011;31639;47.614;19.684;2022-07-24T10:30:07;3.70;;;2.72;;
45926;SDS011;31639;47.614;19.684;2022-07-24T10:45:15;2.63;;;2.27;;
45926;SDS011;31639;47.614;19.684;2022-07-24T10:50:17;2.83;;;2.30;;
45926;SDS011;31639;47.614;19.684;2022-07-24T11:00:37;3.05;;;2.28;;
45926;SDS011;31639;47.614;19.684;2022-07-24T11:05:39;2.80;;;2.25;;
45926;SDS011;31639;47.614;19.684;2022-07-24T11:10:56;11.27;;;2.30;;
45926;SDS011;31639;47.614;19.684;2022-07-24T11:21:35;5.13;;;3.35;;
45926;SDS011;31639;47.614;19.684;2022-07-24T11:31:44;3.05;;;2.67;;
45926;SDS011;31639;47.614;19.684;2022-07-24T11:36:47;2.85;;;2.10;;
45926;SDS011;31639;47.614;19.684;2022-07-24T11:41:51;3.65;;;2.88;;
45926;SDS011;31639;47.614;19.684;2022-07-24T11:46:55;3.70;;;2.60;;
45926;SDS011;31639;47.614;19.684;2022-07-24T11:52:01;3.17;;;2.47;;
45926;SDS011;31639;47.614;19.684;2022-07-24T11:57:02;3.70;;;2.50;;
45926;SDS011;31639;47.614;19.684;2022-07-24T12:02:10;2.72;;;2.47;;
45926;SDS011;31639;47.614;19.684;2022-07-24T12:07:12;4.32;;;2.90;;
45926;SDS011;31639;47.614;19.684;2022-07-24T12:12:34;3.28;;;2.50;;
45926;SDS011;31639;47.614;19.684;2022-07-24T12:23:12;3.33;;;2.55;;
45926;SDS011;31639;47.614;19.684;2022-07-24T12:28:15;2.95;;;2.13;;
45926;SDS011;31639;47.614;19.684;2022-07-24T12:38:31;4.00;;;3.13;;
45926;SDS011;31639;47.614;19.684;2022-07-24T12:49:12;2.83;;;2.40;;
45926;SDS011;31639;47.614;19.684;2022-07-24T12:54:21;2.95;;;2.22;;
45926;SDS011;31639;47.614;19.684;2022-07-24T12:59:33;2.67;;;1.83;;
45926;SDS011;31639;47.614;19.684;2022-07-24T13:04:44;2.30;;;2.10;;
45926;SDS011;31639;47.614;19.684;2022-07-24T13:09:47;3.80;;;1.90;;
45926;SDS011;31639;47.614;19.684;2022-07-24T13:14:49;2.38;;;1.60;;
45926;SDS011;31639;47.614;19.684;2022-07-24T13:19:50;2.88;;;2.40;;
45926;SDS011;31639;47.614;19.684;2022-07-24T13:24:52;2.73;;;2.37;;
45926;SDS011;31639;47.614;19.684;2022-07-24T13:29:52;2.33;;;2.13;;
45926;SDS011;31639;47.614;19.684;2022-07-24T13:34:53;2.17;;;1.73;;
45926;SDS011;31639;47.614;19.684;2022-07-24T13:39:53;1.77;;;1.67;;
45926;SDS011;31639;47.614;19.684;2022-07-24T13:44:53;2.80;;;2.30;;
45926;SDS011;31639;47.614;19.684;2022-07-24T13:49:54;2.30;;;2.10;;
45926;SDS011;31639;47.614;19.684;2022-07-24T13:54:54;7.82;;;2.53;;
45926;SDS011;31639;47.614;19.684;2022-07-24T13:59:55;2.70;;;2.33;;
45926;SDS011;31639;47.614;19.684;2022-07-24T14:04:55;2.50;;;2.30;;
45926;SDS011;31639;47.614;19.684;2022-07-24T14:09:55;2.10;;;1.80;;
45926;SDS011;31639;47.614;19.684;2022-07-24T14:14:56;2.58;;;2.15;;
45926;SDS011;31639;47.614;19.684;2022-07-24T14:19:56;2.57;;;2.00;;
45926;SDS011;31639;47.614;19.684;2022-07-24T14:24:57;3.50;;;1.80;;
45926;SDS011;31639;47.614;19.684;2022-07-24T14:29:57;2.33;;;2.13;;
45926;SDS011;31639;47.614;19.684;2022-07-24T14:34:58;3.45;;;2.75;;
45926;SDS011;31639;47.614;19.684;2022-07-24T14:39:58;2.17;;;1.80;;
45926;SDS011;31639;47.614;19.684;2022-07-24T14:44:59;2.33;;;1.90;;
45926;SDS011;31639;47.614;19.684;2022-07-24T14:49:59;2.42;;;1.90;;
45926;SDS011;31639;47.614;19.684;2022-07-24T14:55:00;2.33;;;1.93;;
45926;SDS011;31639;47.614;19.684;2022-07-24T15:00:01;2.63;;;1.92;;
45926;SDS011;31639;47.614;19.684;2022-07-24T15:05:03;2.70;;;1.90;;
45926;SDS011;31639;47.614;19.684;2022-07-24T15:10:04;2.25;;;1.98;;
45926;SDS011;31639;47.614;19.684;2022-07-24T15:15:05;2.72;;;2.00;;
45926;SDS011;31639;47.614;19.684;2022-07-24T15:20:06;2.47;;;1.60;;
45926;SDS011;31639;47.614;19.684;2022-07-24T15:25:07;2.70;;;1.80;;
45926;SDS011;31639;47.614;19.684;2022-07-24T15:30:08;3.15;;;2.00;;
45926;SDS011;31639;47.614;19.684;2022-07-24T15:35:08;2.50;;;1.80;;
45926;SDS011;31639;47.614;19.684;2022-07-24T15:40:09;2.57;;;2.03;;
45926;SDS011;31639;47.614;19.684;2022-07-24T15:45:10;2.58;;;1.55;;
45926;SDS011;31639;47.614;19.684;2022-07-24T15:50:10;2.90;;;1.73;;
45926;SDS011;31639;47.614;19.684;2022-07-24T15:55:11;2.53;;;1.70;;
45926;SDS011;31639;47.614;19.684;2022-07-24T16:00:12;2.17;;;1.80;;
45926;SDS011;31639;47.614;19.684;2022-07-24T16:05:12;2.58;;;1.80;;
45926;SDS011;31639;47.614;19.684;2022-07-24T16:10:13;2.07;;;1.60;;
45926;SDS011;31639;47.614;19.684;2022-07-24T16:15:14;2.03;;;1.67;;
45926;SDS011;31639;47.614;19.684;2022-07-24T16:20:15;2.08;;;1.50;;
45926;SDS011;31639;47.614;19.684;2022-07-24T16:25:16;2.13;;;1.60;;
45926;SDS011;31639;47.614;19.684;2022-07-24T16:30:17;1.58;;;1.48;;
45926;SDS011;31639;47.614;19.684;2022-07-24T16:35:17;2.78;;;1.77;;
45926;SDS011;31639;47.614;19.684;2022-07-24T16:40:18;2.00;;;1.50;;
45926;SDS011;31639;47.614;19.684;2022-07-24T16:45:18;1.85;;;1.35;;
45926;SDS011;31639;47.614;19.684;2022-07-24T16:50:19;2.33;;;1.83;;
45926;SDS011;31639;47.614;19.684;2022-07-24T16:55:19;1.60;;;1.30;;
45926;SDS011;31639;47.614;19.684;2022-07-24T17:00:20;1.80;;;1.52;;
45926;SDS011;31639;47.614;19.684;2022-07-24T17:05:21;2.55;;;1.40;;
45926;SDS011;31639;47.614;19.684;2022-07-24T17:10:21;1.60;;;1.50;;
45926;SDS011;31639;47.614;19.684;2022-07-24T17:15:22;2.03;;;1.20;;
45926;SDS011;31639;47.614;19.684;2022-07-24T17:20:24;2.03;;;1.53;;
45926;SDS011;31639;47.614;19.684;2022-07-24T17:25:26;2.75;;;1.50;;
45926;SDS011;31639;47.614;19.684;2022-07-24T17:30:28;2.97;;;1.80;;
45926;SDS011;31639;47.614;19.684;2022-07-24T17:35:30;2.53;;;1.60;;
45926;SDS011;31639;47.614;19.684;2022-07-24T17:40:32;2.13;;;1.38;;
45926;SDS011;31639;47.614;19.684;2022-07-24T17:45:32;2.00;;;1.73;;
45926;SDS011;31639;47.614;19.684;2022-07-24T17:50:33;1.80;;;1.13;;
45926;SDS011;31639;47.614;19.684;2022-07-24T17:55:34;1.90;;;1.50;;
45926;SDS011;31639;47.614;19.684;2022-07-24T18:00:35;1.38;;;1.15;;
45926;SDS011;31639;47.614;19.684;2022-07-24T18:05:35;1.97;;;1.37;;
45926;SDS011;31639;47.614;19.684;2022-07-24T18:10:36;1.85;;;1.15;;
45926;SDS011;31639;47.614;19.684;2022-07-24T18:15:36;1.73;;;1.60;;
45926;SDS011;31639;47.614;19.684;2022-07-24T18:20:36;1.70;;;1.23;;
45926;SDS011;31639;47.614;19.684;2022-07-24T18:25:37;1.50;;;1.20;;
45926;SDS011;31639;47.614;19.684;2022-07-24T18:30:37;4.53;;;2.63;;
45926;SDS011;31639;47.614;19.684;2022-07-24T18:35:38;3.60;;;2.90;;
45926;SDS011;31639;47.614;19.684;2022-07-24T18:40:38;3.60;;;2.63;;
45926;SDS011;31639;47.614;19.684;2022-07-24T18:45:39;4.32;;;3.67;;
45926;SDS011;31639;47.614;19.684;2022-07-24T18:50:39;4.45;;;3.47;;
45926;SDS011;31639;47.614;19.684;2022-07-24T18:55:39;5.23;;;3.37;;
45926;SDS011;31639;47.614;19.684;2022-07-24T19:00:41;4.20;;;2.83;;
45926;SDS011;31639;47.614;19.684;2022-07-24T19:05:41;6.88;;;3.95;;
45926;SDS011;31639;47.614;19.684;2022-07-24T19:10:42;5.57;;;3.63;;
45926;SDS011;31639;47.614;19.684;2022-07-24T19:15:43;4.95;;;3.63;;
45926;SDS011;31639;47.614;19.684;2022-07-24T19:20:43;4.13;;;3.35;;
45926;SDS011;31639;47.614;19.684;2022-07-24T19:25:44;5.10;;;4.18;;
45926;SDS011;31639;47.614;19.684;2022-07-24T19:30:44;6.07;;;3.50;;
45926;SDS011;31639;47.614;19.684;2022-07-24T19:35:44;5.30;;;3.28;;
45926;SDS011;31639;47.614;19.684;2022-07-24T19:40:45;7.20;;;4.10;;
45926;SDS011;31639;47.614;19.684;2022-07-24T19:45:45;5.70;;;3.83;;
45926;SDS011;31639;47.614;19.684;2022-07-24T19:50:46;4.85;;;2.65;;
45926;SDS011;31639;47.614;19.684;2022-07-24T19:55:47;6.13;;;3.42;;
45926;SDS011;31639;47.614;19.684;2022-07-24T20:00:48;4.45;;;3.40;;
45926;SDS011;31639;47.614;19.684;2022-07-24T20:05:48;5.32;;;3.80;;
45926;SDS011;31639;47.614;19.684;2022-07-24T20:10:49;5.03;;;3.10;;
45926;SDS011;31639;47.614;19.684;2022-07-24T20:15:49;5.15;;;3.30;;
45926;SDS011;31639;47.614;19.684;2022-07-24T20:20:50;4.68;;;3.45;;
45926;SDS011;31639;47.614;19.684;2022-07-24T20:25:50;4.70;;;3.20;;
45926;SDS011;31639;47.614;19.684;2022-07-24T20:30:51;4.50;;;2.90;;
45926;SDS011;31639;47.614;19.684;2022-07-24T20:35:53;4.88;;;2.88;;
45926;SDS011;31639;47.614;19.684;2022-07-24T20:40:54;5.25;;;3.80;;
45926;SDS011;31639;47.614;19.684;2022-07-24T20:45:54;5.20;;;2.90;;
45926;SDS011;31639;47.614;19.684;2022-07-24T20:50:55;3.90;;;2.70;;
45926;SDS011;31639;47.614;19.684;2022-07-24T20:55:55;3.63;;;2.57;;
45926;SDS011;31639;47.614;19.684;2022-07-24T21:00:55;4.07;;;2.50;;
45926;SDS011;31639;47.614;19.684;2022-07-24T21:05:56;2.83;;;2.13;;
45926;SDS011;31639;47.614;19.684;2022-07-24T21:10:56;3.08;;;2.80;;
45926;SDS011;31639;47.614;19.684;2022-07-24T21:15:57;6.03;;;3.47;;
45926;SDS011;31639;47.614;19.684;2022-07-24T21:20:57;3.20;;;2.42;;
45926;SDS011;31639;47.614;19.684;2022-07-24T21:25:58;3.13;;;2.03;;
45926;SDS011;31639;47.614;19.684;2022-07-24T21:30:58;2.80;;;2.43;;
45926;SDS011;31639;47.614;19.684;2022-07-24T21:35:58;3.23;;;2.30;;
45926;SDS011;31639;47.614;19.684;2022-07-24T21:40:59;2.17;;;1.88;;
45926;SDS011;31639;47.614;19.684;2022-07-24T21:46:00;2.67;;;2.20;;
45926;SDS011;31639;47.614;19.684;2022-07-24T21:51:02;2.17;;;1.70;;
45926;SDS011;31639;47.614;19.684;2022-07-24T21:56:03;2.10;;;1.73;;
45926;SDS011;31639;47.614;19.684;2022-07-24T22:01:03;1.73;;;1.58;;
45926;SDS011;31639;47.614;19.684;2022-07-24T22:06:04;2.63;;;1.30;;
45926;SDS011;31639;47.614;19.684;2022-07-24T22:11:04;3.53;;;2.30;;
45926;SDS011;31639;47.614;19.684;2022-07-24T22:16:05;3.22;;;1.63;;
45926;SDS011;31639;47.614;19.684;2022-07-24T22:21:05;3.27;;;2.60;;
45926;SDS011;31639;47.614;19.684;2022-07-24T22:26:05;3.43;;;1.87;;
45926;SDS011;31639;47.614;19.684;2022-07-24T22:31:06;2.30;;;1.67;;
45926;SDS011;31639;47.614;19.684;2022-07-24T22:36:07;1.73;;;1.42;;
45926;SDS011;31639;47.614;19.684;2022-07-24T22:41:08;2.45;;;1.88;;
45926;SDS011;31639;47.614;19.684;2022-07-24T22:46:09;2.35;;;1.50;;
45926;SDS011;31639;47.614;19.684;2022-07-24T22:51:12;3.70;;;2.17;;
45926;SDS011;31639;47.614;19.684;2022-07-24T22:56:13;2.72;;;1.65;;
45926;SDS011;31639;47.614;19.684;2022-07-24T23:01:14;2.90;;;1.77;;
45926;SDS011;31639;47.614;19.684;2022-07-24T23:06:15;1.50;;;1.40;;
45926;SDS011;31639;47.614;19.684;2022-07-24T23:11:16;2.70;;;1.60;;
45926;SDS011;31639;47.614;19.684;2022-07-24T23:16:17;1.92;;;1.42;;
45926;SDS011;31639;47.614;19.684;2022-07-24T23:21:18;4.22;;;1.67;;
45926;SDS011;31639;47.614;19.684;2022-07-24T23:26:18;3.15;;;2.00;;
45926;SDS011;31639;47.614;19.684;2022-07-24T23:31:18;2.33;;;1.58;;
45926;SDS011;31639;47.614;19.684;2022-07-24T23:36:19;5.47;;;1.58;;
45926;SDS011;31639;47.614;19.684;2022-07-24T23:41:19;2.88;;;1.63;;
45926;SDS011;31639;47.614;19.684;2022-07-24T23:46:20;1.90;;;1.40;;
45926;SDS011;31639;47.614;19.684;2022-07-24T23:51:20;2.30;;;1.70;;
45926;SDS011;31639;47.614;19.684;2022-07-24T23:56:21;1.55;;;1.35;;
